Time;durP1;ratioP1;P1;durP2;ratioP2;P2;SDS_P1;SDS_P2;PMS_P1;PMS_P2;Temp;Humidity;BMP_temperature;BMP_pressure;BME280_temperature;BME280_humidity;BME280_pressure;Samples;Min_cycle;Max_cycle;Signal;HPM_P1;HPM_P2
2021/01/21 00:00:27;;;;;;;2.20;1.43;;;;;;;;;;5093141;28;20443;-75
2021/01/21 00:03:01;;;;;;;3.93;1.80;;;;;;;;;;5093244;28;20546;-76
2021/01/21 00:05:33;;;;;;;3.43;1.97;;;;;;;;;;5093680;28;20467;-75
2021/01/21 00:08:06;;;;;;;3.53;1.87;;;;;;;;;;5094865;28;20469;-75
2021/01/21 00:10:39;;;;;;;2.70;1.83;;;;;;;;;;5094702;28;20449;-75
2021/01/21 00:13:12;;;;;;;1.80;1.60;;;;;;;;;;5094548;28;20956;-75
2021/01/21 00:15:45;;;;;;;3.90;1.60;;;;;;;;;;5089705;28;20958;-75
2021/01/21 00:18:18;;;;;;;7.80;2.10;;;;;;;;;;5091222;28;20578;-77
2021/01/21 00:20:51;;;;;;;3.13;1.77;;;;;;;;;;5092179;28;20458;-75
2021/01/21 00:23:24;;;;;;;2.70;1.70;;;;;;;;;;5092213;28;20470;-76
2021/01/21 00:25:57;;;;;;;4.10;1.93;;;;;;;;;;5092433;28;20445;-75
2021/01/21 00:28:30;;;;;;;5.20;1.80;;;;;;;;;;5093887;28;20792;-76
2021/01/21 00:31:02;;;;;;;2.63;1.80;;;;;;;;;;5094368;28;20450;-76
2021/01/21 00:33:36;;;;;;;2.80;1.67;;;;;;;;;;5093867;28;20539;-76
2021/01/21 00:36:09;;;;;;;2.53;1.60;;;;;;;;;;5092503;28;20446;-74
2021/01/21 00:38:42;;;;;;;3.53;1.50;;;;;;;;;;5089675;28;20428;-75
2021/01/21 00:41:15;;;;;;;3.30;1.37;;;;;;;;;;5091238;28;20542;-76
2021/01/21 00:43:47;;;;;;;3.80;1.50;;;;;;;;;;5092018;28;20461;-76
2021/01/21 00:46:20;;;;;;;2.13;1.47;;;;;;;;;;5092228;28;20435;-76
2021/01/21 00:48:54;;;;;;;3.83;1.50;;;;;;;;;;5091741;28;20466;-75
2021/01/21 00:51:27;;;;;;;3.77;1.60;;;;;;;;;;5093963;28;20450;-76
2021/01/21 00:53:59;;;;;;;5.53;2.37;;;;;;;;;;5093399;28;20532;-75
2021/01/21 00:56:32;;;;;;;3.63;1.60;;;;;;;;;;5092724;28;20547;-75
2021/01/21 00:59:05;;;;;;;4.67;1.60;;;;;;;;;;5091811;28;20442;-75
2021/01/21 01:01:38;;;;;;;1.77;1.37;;;;;;;;;;5089425;28;20468;-76
2021/01/21 01:04:06;;;;;;;2.83;1.30;;;;;;;;;;5077999;28;20496;-74
2021/01/21 01:06:39;;;;;;;1.77;1.30;;;;;;;;;;5091687;28;20447;-76
2021/01/21 01:09:11;;;;;;;2.60;1.80;;;;;;;;;;5091395;28;20846;-75
2021/01/21 01:11:44;;;;;;;2.70;1.53;;;;;;;;;;5092290;28;20454;-76
2021/01/21 01:14:17;;;;;;;3.80;1.70;;;;;;;;;;5093160;28;20885;-75
2021/01/21 01:16:50;;;;;;;3.53;1.70;;;;;;;;;;5093436;28;20789;-75
2021/01/21 01:19:25;;;;;;;3.73;1.80;;;;;;;;;;5093219;28;20458;-76
2021/01/21 01:21:57;;;;;;;1.60;1.50;;;;;;;;;;5090767;28;20500;-75
2021/01/21 01:24:30;;;;;;;2.30;1.67;;;;;;;;;;5089047;28;20534;-76
2021/01/21 01:27:03;;;;;;;2.33;1.50;;;;;;;;;;5090854;28;20445;-75
2021/01/21 01:29:36;;;;;;;3.00;1.67;;;;;;;;;;5090603;28;20492;-74
2021/01/21 01:32:09;;;;;;;1.50;1.40;;;;;;;;;;5091680;28;20495;-75
2021/01/21 01:34:42;;;;;;;2.10;1.43;;;;;;;;;;5091736;28;21034;-76
2021/01/21 01:37:15;;;;;;;2.80;1.30;;;;;;;;;;5093171;28;20445;-75
2021/01/21 01:39:48;;;;;;;1.90;1.27;;;;;;;;;;5092798;28;20944;-76
2021/01/21 01:42:21;;;;;;;3.83;1.60;;;;;;;;;;5093232;28;20459;-75
2021/01/21 01:44:53;;;;;;;2.40;1.63;;;;;;;;;;5089031;28;20439;-76
2021/01/21 01:47:26;;;;;;;2.43;1.43;;;;;;;;;;5088735;28;20424;-75
2021/01/21 01:50:00;;;;;;;5.63;1.70;;;;;;;;;;5090767;28;20445;-75
2021/01/21 01:52:33;;;;;;;3.17;1.60;;;;;;;;;;5090808;28;20535;-76
2021/01/21 01:55:06;;;;;;;2.93;1.60;;;;;;;;;;5090780;28;20475;-76
2021/01/21 01:57:39;;;;;;;2.10;1.50;;;;;;;;;;5091255;28;20536;-77
2021/01/21 02:00:12;;;;;;;2.20;1.50;;;;;;;;;;5092407;28;20468;-76
2021/01/21 02:02:48;;;;;;;2.77;1.60;;;;;;;;;;5092731;28;20507;-76
2021/01/21 02:05:22;;;;;;;2.73;1.60;;;;;;;;;;5092414;28;20458;-76
2021/01/21 02:07:54;;;;;;;4.47;1.40;;;;;;;;;;5088216;28;20444;-76
2021/01/21 02:10:27;;;;;;;3.50;1.40;;;;;;;;;;5089136;28;20453;-75
2021/01/21 02:13:09;;;;;;;1.50;1.27;;;;;;;;;;5090386;28;20543;-75
2021/01/21 02:15:49;;;;;;;2.90;1.60;;;;;;;;;;5089860;28;21015;-75
2021/01/21 02:18:24;;;;;;;2.80;1.33;;;;;;;;;;5090466;28;20439;-77
2021/01/21 02:21:12;;;;;;;4.13;2.20;;;;;;;;;;5091206;28;20502;-76
2021/01/21 02:23:54;;;;;;;3.10;1.47;;;;;;;;;;5093242;28;20849;-76
2021/01/21 02:26:32;;;;;;;3.03;1.40;;;;;;;;;;5093238;28;20449;-76
2021/01/21 02:29:08;;;;;;;2.43;1.40;;;;;;;;;;5088845;28;20457;-76
2021/01/21 02:31:46;;;;;;;2.13;1.50;;;;;;;;;;5087945;28;21019;-78
2021/01/21 02:34:21;;;;;;;3.40;1.63;;;;;;;;;;5094135;28;20855;-76
2021/01/21 02:36:56;;;;;;;4.17;1.80;;;;;;;;;;5093440;28;20943;-76
2021/01/21 02:39:30;;;;;;;2.53;1.80;;;;;;;;;;5091184;28;20531;-76
2021/01/21 02:42:04;;;;;;;3.10;1.53;;;;;;;;;;5095751;28;20833;-75
2021/01/21 02:44:37;;;;;;;2.80;1.67;;;;;;;;;;5098041;28;20435;-75
2021/01/21 02:47:10;;;;;;;1.67;1.37;;;;;;;;;;5092980;28;21003;-75
2021/01/21 02:49:44;;;;;;;2.23;1.53;;;;;;;;;;5090399;28;20443;-76
2021/01/21 02:52:20;;;;;;;2.80;1.60;;;;;;;;;;5088069;28;20455;-75
2021/01/21 02:54:57;;;;;;;2.10;1.50;;;;;;;;;;5088032;28;20501;-76
2021/01/21 02:57:34;;;;;;;3.60;1.60;;;;;;;;;;5087796;28;20471;-75
2021/01/21 03:00:08;;;;;;;3.80;1.80;;;;;;;;;;5092450;28;20803;-75
2021/01/21 03:02:44;;;;;;;3.90;1.90;;;;;;;;;;5093096;28;20458;-75
2021/01/21 03:05:18;;;;;;;5.23;1.47;;;;;;;;;;5091418;28;20523;-75
2021/01/21 03:07:52;;;;;;;1.93;1.30;;;;;;;;;;5096209;28;20796;-75
2021/01/21 03:10:28;;;;;;;2.50;1.57;;;;;;;;;;5094475;28;20444;-75
2021/01/21 03:13:01;;;;;;;2.50;1.43;;;;;;;;;;5094948;28;20461;-75
2021/01/21 03:15:33;;;;;;;2.47;1.70;;;;;;;;;;5090925;28;20469;-75
2021/01/21 03:18:06;;;;;;;3.30;1.30;;;;;;;;;;5092625;28;20447;-76
2021/01/21 03:20:40;;;;;;;1.97;1.30;;;;;;;;;;5093521;28;20529;-75
2021/01/21 03:23:13;;;;;;;4.00;1.70;;;;;;;;;;5093152;28;20467;-75
2021/01/21 03:25:45;;;;;;;2.63;2.00;;;;;;;;;;5094013;28;20450;-76
2021/01/21 03:28:25;;;;;;;4.17;1.90;;;;;;;;;;5095565;28;20499;-75
2021/01/21 03:30:57;;;;;;;2.57;1.60;;;;;;;;;;5095574;28;20496;-75
2021/01/21 03:33:24;;;;;;;1.77;1.47;;;;;;;;;;5095114;28;20979;-76
2021/01/21 03:35:58;;;;;;;4.90;1.70;;;;;;;;;;5093333;28;20435;-76
2021/01/21 03:38:30;;;;;;;4.53;1.73;;;;;;;;;;5090262;28;21157;-75
2021/01/21 03:41:03;;;;;;;2.40;1.70;;;;;;;;;;5072807;28;20458;-76
2021/01/21 03:43:36;;;;;;;3.57;1.83;;;;;;;;;;5075959;28;21112;-76
2021/01/21 03:46:09;;;;;;;2.97;1.60;;;;;;;;;;5093072;28;20578;-75
2021/01/21 03:48:41;;;;;;;2.83;1.50;;;;;;;;;;5093442;28;20542;-76
2021/01/21 03:51:15;;;;;;;3.80;1.73;;;;;;;;;;5095245;28;20445;-77
2021/01/21 03:53:42;;;;;;;1.90;1.70;;;;;;;;;;5094675;28;20458;-75
2021/01/21 03:56:15;;;;;;;5.37;1.60;;;;;;;;;;5093629;28;20518;-75
2021/01/21 03:58:48;;;;;;;3.17;1.60;;;;;;;;;;5091760;28;20442;-76
2021/01/21 04:01:20;;;;;;;2.77;1.40;;;;;;;;;;5090796;28;20959;-75
2021/01/21 04:03:47;;;;;;;1.50;1.10;;;;;;;;;;5091881;28;20577;-75
2021/01/21 04:06:21;;;;;;;2.63;1.47;;;;;;;;;;5092783;28;20443;-76
2021/01/21 04:08:54;;;;;;;1.93;1.30;;;;;;;;;;5092442;28;20551;-76
2021/01/21 04:11:27;;;;;;;1.20;1.10;;;;;;;;;;5093805;28;20457;-75
2021/01/21 04:14:00;;;;;;;3.20;1.53;;;;;;;;;;5094451;28;20473;-76
2021/01/21 04:16:32;;;;;;;1.50;1.10;;;;;;;;;;5094873;28;20496;-75
2021/01/21 04:19:05;;;;;;;1.77;1.20;;;;;;;;;;5094431;28;20450;-76
2021/01/21 04:21:39;;;;;;;1.33;1.10;;;;;;;;;;5091123;28;20526;-75
2021/01/21 04:24:06;;;;;;;3.23;1.07;;;;;;;;;;5090334;28;20438;-76
2021/01/21 04:26:39;;;;;;;1.40;1.20;;;;;;;;;;5092738;28;20996;-75
2021/01/21 04:29:12;;;;;;;1.83;0.90;;;;;;;;;;5091920;28;20469;-77
2021/01/21 04:31:45;;;;;;;1.10;1.00;;;;;;;;;;5092855;28;20439;-75
2021/01/21 04:34:17;;;;;;;1.03;0.90;;;;;;;;;;5093161;28;20481;-76
2021/01/21 04:36:51;;;;;;;1.13;1.03;;;;;;;;;;5093485;28;20538;-75
2021/01/21 04:39:24;;;;;;;2.00;0.97;;;;;;;;;;5094426;28;20815;-75
2021/01/21 04:41:57;;;;;;;1.20;1.00;;;;;;;;;;5094175;28;20467;-75
2021/01/21 04:44:29;;;;;;;2.13;1.10;;;;;;;;;;5089759;28;20464;-76
2021/01/21 04:47:03;;;;;;;26.77;1.93;;;;;;;;;;5090452;28;20446;-77
2021/01/21 04:49:39;;;;;;;3.10;1.07;;;;;;;;;;5092134;28;20446;-76
2021/01/21 04:52:12;;;;;;;2.43;1.40;;;;;;;;;;5092093;28;20687;-76
2021/01/21 04:54:49;;;;;;;1.87;1.40;;;;;;;;;;5092014;28;20481;-76
2021/01/21 04:57:26;;;;;;;1.57;1.23;;;;;;;;;;5071250;28;20478;-76
2021/01/21 04:59:59;;;;;;;1.50;1.00;;;;;;;;;;5072150;28;21012;-75
2021/01/21 05:02:32;;;;;;;1.10;1.00;;;;;;;;;;5073537;28;20467;-76
2021/01/21 05:05:05;;;;;;;2.63;1.00;;;;;;;;;;5076406;28;20476;-75
2021/01/21 05:07:40;;;;;;;2.80;1.07;;;;;;;;;;5088976;28;20512;-75
2021/01/21 05:10:13;;;;;;;2.50;1.10;;;;;;;;;;5090424;28;20448;-76
2021/01/21 05:12:47;;;;;;;1.57;1.10;;;;;;;;;;5091402;28;20820;-76
2021/01/21 05:15:20;;;;;;;1.70;1.20;;;;;;;;;;5091383;28;21006;-75
2021/01/21 05:17:53;;;;;;;1.70;1.20;;;;;;;;;;5091545;28;20616;-74
2021/01/21 05:20:26;;;;;;;5.63;1.10;;;;;;;;;;5092741;28;20450;-75
2021/01/21 05:23:03;;;;;;;1.73;1.40;;;;;;;;;;5093728;28;20467;-75
2021/01/21 05:25:36;;;;;;;2.87;1.37;;;;;;;;;;5093507;28;20718;-76
2021/01/21 05:28:09;;;;;;;1.20;1.00;;;;;;;;;;5091409;28;20438;-75
2021/01/21 05:30:41;;;;;;;1.20;1.00;;;;;;;;;;5088901;28;21073;-75
2021/01/21 05:33:14;;;;;;;2.13;1.10;;;;;;;;;;5090841;28;20490;-76
2021/01/21 05:35:48;;;;;;;1.60;1.20;;;;;;;;;;5090676;28;20535;-75
2021/01/21 05:38:22;;;;;;;1.90;1.10;;;;;;;;;;5090334;28;20744;-76
2021/01/21 05:40:55;;;;;;;2.10;1.13;;;;;;;;;;5091090;28;20450;-75
2021/01/21 05:43:28;;;;;;;1.40;0.90;;;;;;;;;;5088322;28;20463;-75
2021/01/21 05:46:01;;;;;;;3.60;1.70;;;;;;;;;;5089301;28;20928;-75
2021/01/21 05:48:34;;;;;;;4.50;1.40;;;;;;;;;;5090911;28;20530;-78
2021/01/21 05:51:08;;;;;;;2.23;1.20;;;;;;;;;;5090501;28;20998;-75
2021/01/21 05:53:42;;;;;;;2.20;1.20;;;;;;;;;;5090691;28;20935;-77
2021/01/21 05:56:18;;;;;;;4.63;1.00;;;;;;;;;;5092143;28;20507;-75
2021/01/21 05:58:52;;;;;;;2.90;1.10;;;;;;;;;;5090796;28;20457;-78
2021/01/21 06:01:25;;;;;;;4.67;1.60;;;;;;;;;;5087657;28;20464;-76
2021/01/21 06:03:58;;;;;;;3.35;1.30;;;;;;;;;;5090347;28;20830;-77
2021/01/21 06:06:31;;;;;;;4.07;1.10;;;;;;;;;;5090225;28;20501;-75
2021/01/21 06:09:05;;;;;;;1.40;0.90;;;;;;;;;;5090574;28;20195;-78
2021/01/21 06:11:40;;;;;;;2.03;1.10;;;;;;;;;;5091197;28;20192;-77
2021/01/21 06:14:07;;;;;;;3.53;1.60;;;;;;;;;;5092319;28;20570;-78
2021/01/21 06:16:41;;;;;;;4.53;1.33;;;;;;;;;;5091255;28;20277;-80
2021/01/21 06:19:14;;;;;;;2.83;1.25;;;;;;;;;;5088361;28;20285;-85
2021/01/21 06:21:48;;;;;;;4.53;1.73;;;;;;;;;;5089237;28;20288;-77
2021/01/21 06:24:27;;;;;;;5.65;1.85;;;;;;;;;;5089351;28;20189;-81
2021/01/21 06:27:02;;;;;;;4.10;1.70;;;;;;;;;;5090291;28;20204;-86
2021/01/21 06:29:35;;;;;;;4.38;1.05;;;;;;;;;;5091297;28;20201;-77
2021/01/21 06:32:08;;;;;;;3.97;1.35;;;;;;;;;;5091757;28;20209;-79
2021/01/21 06:34:42;;;;;;;2.00;1.48;;;;;;;;;;5091980;28;20214;-78
2021/01/21 06:37:16;;;;;;;3.80;1.13;;;;;;;;;;5090629;28;20186;-78
2021/01/21 06:39:52;;;;;;;3.65;1.20;;;;;;;;;;5090116;28;20243;-77
2021/01/21 06:42:27;;;;;;;6.15;1.58;;;;;;;;;;5086206;28;20212;-76
2021/01/21 06:45:00;;;;;;;2.47;1.00;;;;;;;;;;5089524;28;20654;-76
2021/01/21 06:47:33;;;;;;;1.52;1.05;;;;;;;;;;5089654;28;20212;-79
2021/01/21 06:50:07;;;;;;;2.17;1.15;;;;;;;;;;5090304;28;20207;-77
2021/01/21 06:52:39;;;;;;;3.65;1.10;;;;;;;;;;5090101;28;20218;-79
2021/01/21 06:55:09;;;;;;;1.88;1.05;;;;;;;;;;5091292;28;20221;-78
2021/01/21 06:57:43;;;;;;;4.13;1.35;;;;;;;;;;5090835;28;20255;-78
2021/01/21 07:00:18;;;;;;;6.35;1.50;;;;;;;;;;5091891;28;20249;-80
2021/01/21 07:02:51;;;;;;;1.52;1.20;;;;;;;;;;5090979;28;20299;-77
2021/01/21 07:05:19;;;;;;;1.30;0.98;;;;;;;;;;5086283;28;20190;-78
2021/01/21 07:08:01;;;;;;;2.65;1.02;;;;;;;;;;5089629;28;20263;-79
2021/01/21 07:10:31;;;;;;;2.58;1.30;;;;;;;;;;5088811;28;20186;-78
2021/01/21 07:13:05;;;;;;;2.50;1.10;;;;;;;;;;5088543;28;20255;-79
2021/01/21 07:15:37;;;;;;;1.55;1.45;;;;;;;;;;5089061;28;20222;-80
2021/01/21 07:18:14;;;;;;;7.78;5.60;;;;;;;;;;5089412;28;20445;-80
2021/01/21 07:21:02;;;;;;;4.40;2.35;;;;;;;;;;5090875;28;20234;-84
2021/01/21 07:23:37;;;;;;;6.55;3.03;;;;;;;;;;5091694;28;20222;-78
2021/01/21 07:26:18;;;;;;;2.17;1.95;;;;;;;;;;5084994;28;20782;-79
2021/01/21 07:28:56;;;;;;;2.60;1.90;;;;;;;;;;5083561;28;20189;-78
2021/01/21 07:31:29;;;;;;;2.33;2.13;;;;;;;;;;5088650;28;20193;-79
2021/01/21 07:34:10;;;;;;;1.80;1.42;;;;;;;;;;5089852;28;20292;-79
2021/01/21 07:37:10;;;;;;;3.20;1.30;;;;;;;;;;5088730;28;20189;-79
2021/01/21 07:39:52;;;;;;;1.55;1.00;;;;;;;;;;5089265;28;20288;-80
2021/01/21 07:42:45;;;;;;;1.55;0.93;;;;;;;;;;5090398;28;20217;-82
2021/01/21 07:45:27;;;;;;;4.80;1.20;;;;;;;;;;5090125;28;20182;-79
2021/01/21 07:47:55;;;;;;;1.38;0.90;;;;;;;;;;5091377;28;20208;-77
2021/01/21 07:50:37;;;;;;;1.10;1.00;;;;;;;;;;5093082;28;20192;-78
2021/01/21 07:53:18;;;;;;;2.70;1.05;;;;;;;;;;5091833;28;20232;-78
2021/01/21 07:55:52;;;;;;;1.75;0.90;;;;;;;;;;5092498;28;20278;-78
2021/01/21 07:58:30;;;;;;;3.15;1.30;;;;;;;;;;5094411;28;20257;-79
2021/01/21 08:01:06;;;;;;;3.05;1.40;;;;;;;;;;5093000;28;20197;-78
2021/01/21 08:03:40;;;;;;;4.68;1.33;;;;;;;;;;5094035;28;20250;-79
2021/01/21 08:06:13;;;;;;;2.47;1.20;;;;;;;;;;5093474;28;20554;-78
2021/01/21 08:08:47;;;;;;;2.03;1.40;;;;;;;;;;5090898;28;20297;-76
2021/01/21 08:11:22;;;;;;;2.75;1.35;;;;;;;;;;5091665;28;20197;-80
2021/01/21 08:13:56;;;;;;;4.45;1.30;;;;;;;;;;5092929;28;20283;-78
2021/01/21 08:16:30;;;;;;;3.47;1.88;;;;;;;;;;5072746;28;20204;-76
2021/01/21 08:19:03;;;;;;;3.40;1.02;;;;;;;;;;5074926;28;20658;-78
2021/01/21 08:21:36;;;;;;;1.23;1.10;;;;;;;;;;5095227;28;20224;-76
2021/01/21 08:24:09;;;;;;;4.72;1.55;;;;;;;;;;5085327;28;20644;-82
2021/01/21 08:26:43;;;;;;;2.15;1.40;;;;;;;;;;5081301;28;20273;-78
2021/01/21 08:29:16;;;;;;;3.35;1.20;;;;;;;;;;5093220;28;20608;-77
2021/01/21 08:31:50;;;;;;;6.38;1.50;;;;;;;;;;5090237;28;20270;-76
2021/01/21 08:34:24;;;;;;;3.47;1.92;;;;;;;;;;5091572;28;20733;-77
2021/01/21 08:37:03;;;;;;;1.67;1.20;;;;;;;;;;5092406;28;20207;-78
2021/01/21 08:39:36;;;;;;;2.40;1.25;;;;;;;;;;5092600;28;20209;-77
2021/01/21 08:42:10;;;;;;;1.88;1.35;;;;;;;;;;5093099;28;20224;-76
2021/01/21 08:44:43;;;;;;;4.65;1.85;;;;;;;;;;5094142;28;20189;-78
2021/01/21 08:47:16;;;;;;;3.38;1.27;;;;;;;;;;5094504;28;20634;-77
2021/01/21 08:49:52;;;;;;;1.67;1.25;;;;;;;;;;5094199;28;20208;-77
2021/01/21 08:52:25;;;;;;;2.63;1.25;;;;;;;;;;5091484;28;20227;-78
2021/01/21 08:54:57;;;;;;;2.00;1.20;;;;;;;;;;5089180;28;20249;-76
2021/01/21 08:57:30;;;;;;;2.13;1.10;;;;;;;;;;5089970;28;20682;-77
2021/01/21 09:00:12;;;;;;;1.55;1.20;;;;;;;;;;5091673;28;20248;-77
2021/01/21 09:02:46;;;;;;;1.10;0.90;;;;;;;;;;5090636;28;20686;-79
2021/01/21 09:05:13;;;;;;;1.30;1.00;;;;;;;;;;5086382;28;20202;-78
2021/01/21 09:07:46;;;;;;;1.88;1.10;;;;;;;;;;5087841;28;20235;-76
2021/01/21 09:10:13;;;;;;;1.73;1.00;;;;;;;;;;5088463;28;20387;-79
2021/01/21 09:12:40;;;;;;;2.90;1.15;;;;;;;;;;5091274;28;20216;-76
2021/01/21 09:15:08;;;;;;;1.55;1.17;;;;;;;;;;5090017;28;20467;-77
2021/01/21 09:17:36;;;;;;;3.42;1.10;;;;;;;;;;5092042;28;20549;-77
2021/01/21 09:20:26;;;;;;;7.00;1.65;;;;;;;;;;5090379;28;20284;-79
2021/01/21 09:22:53;;;;;;;3.38;1.20;;;;;;;;;;5089102;28;20209;-75
2021/01/21 09:25:27;;;;;;;1.60;1.00;;;;;;;;;;5093286;28;20186;-78
2021/01/21 09:28:00;;;;;;;1.70;1.05;;;;;;;;;;5093163;28;20418;-79
2021/01/21 09:30:32;;;;;;;2.15;1.20;;;;;;;;;;5088816;28;20224;-77
2021/01/21 09:32:59;;;;;;;3.38;1.00;;;;;;;;;;5089792;28;20251;-76
2021/01/21 09:35:45;;;;;;;2.95;1.45;;;;;;;;;;5090864;28;20507;-76
2021/01/21 09:38:18;;;;;;;6.57;1.30;;;;;;;;;;5080265;28;20201;-78
2021/01/21 09:40:45;;;;;;;6.07;1.17;;;;;;;;;;5090927;28;20325;-77
2021/01/21 09:43:18;;;;;;;2.72;1.55;;;;;;;;;;5091020;28;20296;-76
2021/01/21 09:45:50;;;;;;;4.55;1.20;;;;;;;;;;5087722;28;20201;-77
2021/01/21 09:48:17;;;;;;;3.55;1.30;;;;;;;;;;5089819;28;20221;-80
2021/01/21 09:50:45;;;;;;;4.85;1.30;;;;;;;;;;5090857;28;20288;-76
2021/01/21 09:53:12;;;;;;;2.40;0.90;;;;;;;;;;5090524;28;20214;-77
2021/01/21 09:55:42;;;;;;;7.28;2.55;;;;;;;;;;5090883;28;20701;-76
2021/01/21 09:58:09;;;;;;;4.20;1.65;;;;;;;;;;5091110;28;20631;-76
2021/01/21 10:00:42;;;;;;;6.75;1.33;;;;;;;;;;5082555;28;20188;-75
2021/01/21 10:03:14;;;;;;;1.75;1.00;;;;;;;;;;5092798;28;20756;-77
2021/01/21 10:05:52;;;;;;;2.60;1.25;;;;;;;;;;5092576;28;20663;-76
2021/01/21 10:08:18;;;;;;;2.95;1.40;;;;;;;;;;5087628;28;20229;-77
2021/01/21 10:10:54;;;;;;;3.60;1.50;;;;;;;;;;5089085;28;20201;-77
2021/01/21 10:13:27;;;;;;;6.22;1.80;;;;;;;;;;5090556;28;20219;-76
2021/01/21 10:15:54;;;;;;;4.82;1.40;;;;;;;;;;5090272;28;20257;-78
2021/01/21 10:18:21;;;;;;;3.75;1.30;;;;;;;;;;5090276;28;20207;-78
2021/01/21 10:20:54;;;;;;;3.65;1.88;;;;;;;;;;5092798;28;20237;-77
2021/01/21 10:23:21;;;;;;;4.43;1.45;;;;;;;;;;5092323;28;20301;-77
2021/01/21 10:25:54;;;;;;;4.55;1.67;;;;;;;;;;5092350;28;20204;-77
2021/01/21 10:28:27;;;;;;;4.53;1.50;;;;;;;;;;5092168;28;20711;-76
2021/01/21 10:30:54;;;;;;;3.85;1.70;;;;;;;;;;5088236;28;20247;-79
2021/01/21 10:33:27;;;;;;;3.72;2.08;;;;;;;;;;5089121;28;20260;-78
2021/01/21 10:35:54;;;;;;;3.40;1.50;;;;;;;;;;5089849;28;20812;-77
2021/01/21 10:38:21;;;;;;;3.15;1.70;;;;;;;;;;5089794;28;20317;-77
2021/01/21 10:40:54;;;;;;;3.88;1.63;;;;;;;;;;5090479;28;20198;-76
2021/01/21 10:43:27;;;;;;;2.10;1.20;;;;;;;;;;5091194;28;20583;-75
2021/01/21 10:45:54;;;;;;;3.53;1.38;;;;;;;;;;5092560;28;20195;-79
2021/01/21 10:48:27;;;;;;;4.05;1.52;;;;;;;;;;5092017;28;20194;-78
2021/01/21 10:51:01;;;;;;;3.72;1.33;;;;;;;;;;5091113;28;20238;-79
2021/01/21 10:53:33;;;;;;;3.03;1.30;;;;;;;;;;5087738;28;20223;-76
2021/01/21 10:56:06;;;;;;;2.95;1.40;;;;;;;;;;5088793;28;20219;-78
2021/01/21 10:58:39;;;;;;;2.60;1.10;;;;;;;;;;5085727;28;20411;-77
2021/01/21 11:01:12;;;;;;;2.45;1.15;;;;;;;;;;5074427;28;20227;-78
2021/01/21 11:03:45;;;;;;;3.20;1.25;;;;;;;;;;5089053;28;20313;-79
2021/01/21 11:06:18;;;;;;;3.47;1.20;;;;;;;;;;5090682;28;20201;-78
2021/01/21 11:08:51;;;;;;;3.47;1.20;;;;;;;;;;5092274;28;20716;-78
2021/01/21 11:11:24;;;;;;;3.40;1.20;;;;;;;;;;5090786;28;20200;-78
2021/01/21 11:13:57;;;;;;;4.95;1.52;;;;;;;;;;5089571;28;20186;-77
2021/01/21 11:16:36;;;;;;;3.47;1.25;;;;;;;;;;5082204;28;20229;-79
2021/01/21 11:19:02;;;;;;;1.90;1.23;;;;;;;;;;5084740;28;20216;-76
2021/01/21 11:21:36;;;;;;;5.85;2.00;;;;;;;;;;5091780;28;20902;-78
2021/01/21 11:24:09;;;;;;;2.38;1.30;;;;;;;;;;5093691;28;20195;-75
2021/01/21 11:26:42;;;;;;;2.03;1.10;;;;;;;;;;5093879;28;20197;-78
2021/01/21 11:29:14;;;;;;;2.95;1.45;;;;;;;;;;5095583;28;20285;-77
2021/01/21 11:31:47;;;;;;;5.82;1.30;;;;;;;;;;5095134;28;20336;-76
2021/01/21 11:34:20;;;;;;;4.13;1.50;;;;;;;;;;5094731;28;20205;-77
2021/01/21 11:36:48;;;;;;;5.60;1.80;;;;;;;;;;5093362;28;20294;-78
2021/01/21 11:39:20;;;;;;;4.30;1.30;;;;;;;;;;5091127;28;20199;-77
2021/01/21 11:41:53;;;;;;;3.70;1.40;;;;;;;;;;5092633;28;20465;-74
2021/01/21 11:44:26;;;;;;;2.90;1.57;;;;;;;;;;5093470;28;20452;-79
2021/01/21 11:46:53;;;;;;;1.95;1.20;;;;;;;;;;5092483;28;20446;-80
2021/01/21 11:49:26;;;;;;;2.90;1.00;;;;;;;;;;5094336;28;20603;-80
2021/01/21 11:51:59;;;;;;;3.83;1.40;;;;;;;;;;5094543;28;20472;-77
2021/01/21 11:54:32;;;;;;;4.20;1.23;;;;;;;;;;5095484;28;20442;-79
2021/01/21 11:57:05;;;;;;;2.30;1.30;;;;;;;;;;5093967;28;20943;-79
2021/01/21 11:59:38;;;;;;;3.10;1.50;;;;;;;;;;5049207;28;20947;-80
2021/01/21 12:02:05;;;;;;;1.33;1.00;;;;;;;;;;5041428;28;20457;-79
2021/01/21 12:04:37;;;;;;;3.10;1.50;;;;;;;;;;5033378;28;20487;-79
2021/01/21 12:07:11;;;;;;;3.80;1.40;;;;;;;;;;5049051;28;20932;-80
2021/01/21 12:09:38;;;;;;;1.47;0.90;;;;;;;;;;5052072;28;20451;-82
2021/01/21 12:12:11;;;;;;;4.40;1.33;;;;;;;;;;5053193;28;20479;-78
2021/01/21 12:14:43;;;;;;;3.13;1.63;;;;;;;;;;5054459;28;20506;-77
2021/01/21 12:17:16;;;;;;;3.90;1.20;;;;;;;;;;5054726;28;20536;-78
2021/01/21 12:19:49;;;;;;;2.63;1.50;;;;;;;;;;5054829;28;20448;-78
2021/01/21 12:22:23;;;;;;;3.07;1.40;;;;;;;;;;5048525;28;20555;-79
2021/01/21 12:24:55;;;;;;;2.00;1.30;;;;;;;;;;5040445;28;20452;-78
2021/01/21 12:27:28;;;;;;;2.10;1.30;;;;;;;;;;5051727;28;20487;-78
2021/01/21 12:30:01;;;;;;;3.00;1.90;;;;;;;;;;5052120;28;20561;-78
2021/01/21 12:32:34;;;;;;;2.40;1.03;;;;;;;;;;5052390;28;20474;-78
2021/01/21 12:35:07;;;;;;;3.70;1.57;;;;;;;;;;5053082;28;20479;-78
2021/01/21 12:37:41;;;;;;;1.10;0.90;;;;;;;;;;5054329;28;20535;-78
2021/01/21 12:40:14;;;;;;;5.87;2.77;;;;;;;;;;5053865;28;20535;-78
2021/01/21 12:42:47;;;;;;;3.10;1.37;;;;;;;;;;5054208;28;20470;-78
2021/01/21 12:45:21;;;;;;;2.70;1.57;;;;;;;;;;5045738;28;20444;-78
2021/01/21 12:47:55;;;;;;;4.23;2.07;;;;;;;;;;5041485;28;20444;-78
2021/01/21 12:50:27;;;;;;;5.90;2.07;;;;;;;;;;5051182;28;20536;-78
2021/01/21 12:53:01;;;;;;;5.00;1.50;;;;;;;;;;5052151;28;20545;-79
2021/01/21 12:55:34;;;;;;;1.63;1.10;;;;;;;;;;5048632;28;20552;-78
2021/01/21 12:58:13;;;;;;;1.80;1.17;;;;;;;;;;5060220;28;20501;-77
2021/01/21 13:00:52;;;;;;;2.60;1.30;;;;;;;;;;5094241;28;20530;-78
2021/01/21 13:03:25;;;;;;;3.53;1.03;;;;;;;;;;5088824;28;20609;-78
2021/01/21 13:05:57;;;;;;;4.30;1.20;;;;;;;;;;5088979;28;20469;-78
2021/01/21 13:08:31;;;;;;;1.73;1.20;;;;;;;;;;5090656;28;20435;-79
2021/01/21 13:11:04;;;;;;;2.43;1.40;;;;;;;;;;5091825;28;20447;-78
2021/01/21 13:13:37;;;;;;;1.83;1.20;;;;;;;;;;5092174;28;20497;-78
2021/01/21 13:16:09;;;;;;;1.10;0.90;;;;;;;;;;5093147;28;20852;-78
2021/01/21 13:18:42;;;;;;;1.40;1.10;;;;;;;;;;5094681;28;20542;-79
2021/01/21 13:21:15;;;;;;;1.83;1.10;;;;;;;;;;5094561;28;20869;-78
2021/01/21 13:23:49;;;;;;;4.63;1.43;;;;;;;;;;5094233;28;20605;-78
2021/01/21 13:26:22;;;;;;;1.60;1.10;;;;;;;;;;5091350;28;20484;-78
2021/01/21 13:28:48;;;;;;;1.93;1.17;;;;;;;;;;5090963;28;20435;-79
2021/01/21 13:31:21;;;;;;;2.70;1.60;;;;;;;;;;5091973;28;20493;-79
2021/01/21 13:33:54;;;;;;;2.83;1.27;;;;;;;;;;5092020;28;20445;-77
2021/01/21 13:36:27;;;;;;;3.33;1.23;;;;;;;;;;5094665;28;20504;-76
2021/01/21 13:39:00;;;;;;;2.27;1.33;;;;;;;;;;5095242;28;20947;-77
2021/01/21 13:41:33;;;;;;;5.13;1.33;;;;;;;;;;5093647;28;20526;-77
2021/01/21 13:44:06;;;;;;;2.13;1.30;;;;;;;;;;5093882;28;20453;-77
2021/01/21 13:46:39;;;;;;;6.60;1.33;;;;;;;;;;5092548;28;20439;-78
2021/01/21 13:49:12;;;;;;;3.13;1.50;;;;;;;;;;5089809;28;20445;-77
2021/01/21 13:51:45;;;;;;;3.60;1.40;;;;;;;;;;5091575;28;21210;-77
2021/01/21 13:54:18;;;;;;;2.77;1.10;;;;;;;;;;5091666;28;20443;-77
2021/01/21 13:56:51;;;;;;;1.97;0.90;;;;;;;;;;5090965;28;20924;-76
2021/01/21 13:59:24;;;;;;;3.93;1.70;;;;;;;;;;5089970;28;20483;-78
2021/01/21 14:01:56;;;;;;;2.70;1.03;;;;;;;;;;5092897;28;20511;-77
2021/01/21 14:04:29;;;;;;;4.00;1.20;;;;;;;;;;5092950;28;20518;-77
2021/01/21 14:07:02;;;;;;;4.03;1.50;;;;;;;;;;5093024;28;20450;-78
2021/01/21 14:09:35;;;;;;;1.10;1.00;;;;;;;;;;5091416;28;20448;-79
2021/01/21 14:12:08;;;;;;;3.40;1.20;;;;;;;;;;5088712;28;20471;-79
2021/01/21 14:14:41;;;;;;;2.83;1.43;;;;;;;;;;5090118;28;20450;-78
2021/01/21 14:17:14;;;;;;;2.43;1.20;;;;;;;;;;5090618;28;20533;-77
2021/01/21 14:19:47;;;;;;;3.90;1.37;;;;;;;;;;5090635;28;20453;-77
2021/01/21 14:22:20;;;;;;;2.30;1.17;;;;;;;;;;5090912;28;20462;-77
2021/01/21 14:24:53;;;;;;;1.10;1.00;;;;;;;;;;5092975;28;20537;-78
2021/01/21 14:27:27;;;;;;;1.93;1.00;;;;;;;;;;5093011;28;20449;-76
2021/01/21 14:29:59;;;;;;;2.07;0.80;;;;;;;;;;5092731;28;20849;-77
2021/01/21 14:32:32;;;;;;;2.17;0.97;;;;;;;;;;5089377;28;20489;-78
2021/01/21 14:35:05;;;;;;;5.60;2.07;;;;;;;;;;5088940;28;20745;-77
2021/01/21 14:37:39;;;;;;;4.67;1.50;;;;;;;;;;5090116;28;20529;-76
2021/01/21 14:40:13;;;;;;;1.53;1.00;;;;;;;;;;5090477;28;20445;-76
2021/01/21 14:42:46;;;;;;;2.87;1.20;;;;;;;;;;5090480;28;20938;-75
2021/01/21 14:45:19;;;;;;;5.00;1.20;;;;;;;;;;5091506;28;20478;-76
2021/01/21 14:47:52;;;;;;;2.53;1.20;;;;;;;;;;5092650;28;20845;-76
2021/01/21 14:50:25;;;;;;;4.50;1.00;;;;;;;;;;5092488;28;20533;-77
2021/01/21 14:52:58;;;;;;;3.80;1.20;;;;;;;;;;5092421;28;20557;-77
2021/01/21 14:55:32;;;;;;;4.80;1.50;;;;;;;;;;5091832;28;20816;-76
2021/01/21 14:58:05;;;;;;;6.83;1.40;;;;;;;;;;5091989;28;20828;-77
2021/01/21 15:00:37;;;;;;;2.97;1.13;;;;;;;;;;5094325;28;20472;-77
2021/01/21 15:03:04;;;;;;;3.50;1.33;;;;;;;;;;5091301;28;20478;-77
2021/01/21 15:05:37;;;;;;;2.33;1.30;;;;;;;;;;5093784;28;20529;-77
2021/01/21 15:08:10;;;;;;;4.60;1.67;;;;;;;;;;5091583;28;21024;-77
2021/01/21 15:10:51;;;;;;;2.30;1.07;;;;;;;;;;5092249;28;20431;-77
2021/01/21 15:13:24;;;;;;;2.43;1.27;;;;;;;;;;5094358;28;20462;-77
2021/01/21 15:15:57;;;;;;;1.80;1.40;;;;;;;;;;5094372;28;20886;-77
2021/01/21 15:18:29;;;;;;;3.30;1.40;;;;;;;;;;5094199;28;20452;-77